sensor_id;sensor_type;location;lat;lon;timestamp;temperature;humidity
22968;DHT22;11650;48.106;-1.696;2023-08-20T00:00:30;18.70;99.90
22968;DHT22;11650;48.106;-1.696;2023-08-20T00:03:12;18.60;99.90
22968;DHT22;11650;48.106;-1.696;2023-08-20T00:05:40;18.60;99.90
22968;DHT22;11650;48.106;-1.696;2023-08-20T00:08:06;18.50;99.90
22968;DHT22;11650;48.106;-1.696;2023-08-20T00:10:31;18.50;99.90
22968;DHT22;11650;48.106;-1.696;2023-08-20T00:12:58;18.50;99.90
22968;DHT22;11650;48.106;-1.696;2023-08-20T00:15:24;18.60;99.90
22968;DHT22;11650;48.106;-1.696;2023-08-20T00:17:53;18.50;99.90
22968;DHT22;11650;48.106;-1.696;2023-08-20T00:20:20;18.50;99.90
22968;DHT22;11650;48.106;-1.696;2023-08-20T00:22:46;18.50;99.90
22968;DHT22;11650;48.106;-1.696;2023-08-20T00:25:16;18.40;99.90
22968;DHT22;11650;48.106;-1.696;2023-08-20T00:27:43;18.50;99.90
22968;DHT22;11650;48.106;-1.696;2023-08-20T00:30:09;18.50;99.90
22968;DHT22;11650;48.106;-1.696;2023-08-20T00:32:36;18.50;99.90
22968;DHT22;11650;48.106;-1.696;2023-08-20T00:35:02;18.50;99.90
22968;DHT22;11650;48.106;-1.696;2023-08-20T00:37:29;18.40;99.90
22968;DHT22;11650;48.106;-1.696;2023-08-20T00:39:55;18.30;99.90
22968;DHT22;11650;48.106;-1.696;2023-08-20T00:42:20;18.30;99.90
22968;DHT22;11650;48.106;-1.696;2023-08-20T00:44:46;18.30;99.90
22968;DHT22;11650;48.106;-1.696;2023-08-20T00:47:13;18.30;99.90
22968;DHT22;11650;48.106;-1.696;2023-08-20T00:49:39;18.30;99.90
22968;DHT22;11650;48.106;-1.696;2023-08-20T00:52:08;18.20;99.90
22968;DHT22;11650;48.106;-1.696;2023-08-20T00:54:34;18.10;99.90
22968;DHT22;11650;48.106;-1.696;2023-08-20T00:57:01;18.20;99.90
22968;DHT22;11650;48.106;-1.696;2023-08-20T00:59:28;18.10;99.90
22968;DHT22;11650;48.106;-1.696;2023-08-20T01:01:54;18.10;99.90
22968;DHT22;11650;48.106;-1.696;2023-08-20T01:04:20;18.00;99.90
22968;DHT22;11650;48.106;-1.696;2023-08-20T01:06:55;17.90;99.90
22968;DHT22;11650;48.106;-1.696;2023-08-20T01:11:59;17.80;99.90
22968;DHT22;11650;48.106;-1.696;2023-08-20T01:14:25;17.80;99.90
22968;DHT22;11650;48.106;-1.696;2023-08-20T01:16:51;17.80;99.90
22968;DHT22;11650;48.106;-1.696;2023-08-20T01:19:18;17.80;99.90
22968;DHT22;11650;48.106;-1.696;2023-08-20T01:30:43;17.70;99.90
22968;DHT22;11650;48.106;-1.696;2023-08-20T01:33:11;17.60;99.90
22968;DHT22;11650;48.106;-1.696;2023-08-20T01:35:38;17.60;99.90
22968;DHT22;11650;48.106;-1.696;2023-08-20T01:38:04;17.50;99.90
22968;DHT22;11650;48.106;-1.696;2023-08-20T01:40:30;17.50;99.90
22968;DHT22;11650;48.106;-1.696;2023-08-20T01:42:56;17.50;99.90
22968;DHT22;11650;48.106;-1.696;2023-08-20T01:45:22;17.40;99.90
22968;DHT22;11650;48.106;-1.696;2023-08-20T01:47:48;17.40;99.90
22968;DHT22;11650;48.106;-1.696;2023-08-20T01:50:13;17.40;99.90
22968;DHT22;11650;48.106;-1.696;2023-08-20T01:52:39;17.40;99.90
22968;DHT22;11650;48.106;-1.696;2023-08-20T01:55:05;17.40;99.90
22968;DHT22;11650;48.106;-1.696;2023-08-20T01:57:31;17.30;99.90
22968;DHT22;11650;48.106;-1.696;2023-08-20T01:59:57;17.30;99.90
22968;DHT22;11650;48.106;-1.696;2023-08-20T02:02:24;17.30;99.90
22968;DHT22;11650;48.106;-1.696;2023-08-20T02:04:50;17.30;99.90
22968;DHT22;11650;48.106;-1.696;2023-08-20T02:07:15;17.30;99.90
22968;DHT22;11650;48.106;-1.696;2023-08-20T02:09:41;17.30;99.90
22968;DHT22;11650;48.106;-1.696;2023-08-20T02:12:07;17.20;99.90
22968;DHT22;11650;48.106;-1.696;2023-08-20T02:14:33;17.20;99.90
22968;DHT22;11650;48.106;-1.696;2023-08-20T02:17:01;17.10;99.90
22968;DHT22;11650;48.106;-1.696;2023-08-20T02:19:27;17.20;99.90
22968;DHT22;11650;48.106;-1.696;2023-08-20T02:21:53;17.20;99.90
22968;DHT22;11650;48.106;-1.696;2023-08-20T02:24:18;17.10;99.90
22968;DHT22;11650;48.106;-1.696;2023-08-20T02:26:44;17.10;99.90
22968;DHT22;11650;48.106;-1.696;2023-08-20T02:29:10;17.00;99.90
22968;DHT22;11650;48.106;-1.696;2023-08-20T02:31:36;17.10;99.90
22968;DHT22;11650;48.106;-1.696;2023-08-20T02:34:01;17.10;99.90
22968;DHT22;11650;48.106;-1.696;2023-08-20T02:36:27;17.10;99.90
22968;DHT22;11650;48.106;-1.696;2023-08-20T02:38:53;17.10;99.90
22968;DHT22;11650;48.106;-1.696;2023-08-20T02:41:18;17.10;99.90
22968;DHT22;11650;48.106;-1.696;2023-08-20T02:43:45;17.00;99.90
22968;DHT22;11650;48.106;-1.696;2023-08-20T02:46:10;17.00;99.90
22968;DHT22;11650;48.106;-1.696;2023-08-20T02:48:36;17.00;99.90
22968;DHT22;11650;48.106;-1.696;2023-08-20T02:51:02;17.00;99.90
22968;DHT22;11650;48.106;-1.696;2023-08-20T02:53:28;16.90;99.90
22968;DHT22;11650;48.106;-1.696;2023-08-20T02:55:54;16.80;99.90
22968;DHT22;11650;48.106;-1.696;2023-08-20T02:58:20;16.70;99.90
22968;DHT22;11650;48.106;-1.696;2023-08-20T03:00:46;16.70;99.90
22968;DHT22;11650;48.106;-1.696;2023-08-20T03:03:12;16.60;99.90
22968;DHT22;11650;48.106;-1.696;2023-08-20T03:05:37;16.70;99.90
22968;DHT22;11650;48.106;-1.696;2023-08-20T03:08:04;16.70;99.90
22968;DHT22;11650;48.106;-1.696;2023-08-20T03:10:30;16.70;99.90
22968;DHT22;11650;48.106;-1.696;2023-08-20T03:13:00;16.60;99.90
22968;DHT22;11650;48.106;-1.696;2023-08-20T03:15:26;16.50;99.90
22968;DHT22;11650;48.106;-1.696;2023-08-20T03:17:52;16.50;99.90
22968;DHT22;11650;48.106;-1.696;2023-08-20T03:20:18;16.50;99.90
22968;DHT22;11650;48.106;-1.696;2023-08-20T03:22:43;16.50;99.90
22968;DHT22;11650;48.106;-1.696;2023-08-20T03:25:09;16.40;99.90
22968;DHT22;11650;48.106;-1.696;2023-08-20T03:27:34;16.40;99.90
22968;DHT22;11650;48.106;-1.696;2023-08-20T03:30:01;16.40;99.90
22968;DHT22;11650;48.106;-1.696;2023-08-20T03:32:26;16.30;99.90
22968;DHT22;11650;48.106;-1.696;2023-08-20T03:34:52;16.30;99.90
22968;DHT22;11650;48.106;-1.696;2023-08-20T03:37:19;16.30;99.90
22968;DHT22;11650;48.106;-1.696;2023-08-20T03:39:45;16.20;99.90
22968;DHT22;11650;48.106;-1.696;2023-08-20T03:42:11;16.30;99.90
22968;DHT22;11650;48.106;-1.696;2023-08-20T03:44:36;16.20;99.90
22968;DHT22;11650;48.106;-1.696;2023-08-20T03:47:02;16.20;99.90
22968;DHT22;11650;48.106;-1.696;2023-08-20T03:49:28;16.20;99.90
22968;DHT22;11650;48.106;-1.696;2023-08-20T03:51:53;16.20;99.90
22968;DHT22;11650;48.106;-1.696;2023-08-20T03:54:19;16.20;99.90
22968;DHT22;11650;48.106;-1.696;2023-08-20T03:56:45;16.10;99.90
22968;DHT22;11650;48.106;-1.696;2023-08-20T03:59:11;16.10;99.90
22968;DHT22;11650;48.106;-1.696;2023-08-20T04:01:37;16.10;99.90
22968;DHT22;11650;48.106;-1.696;2023-08-20T04:04:03;16.10;99.90
22968;DHT22;11650;48.106;-1.696;2023-08-20T04:06:29;16.00;99.90
22968;DHT22;11650;48.106;-1.696;2023-08-20T04:08:55;16.00;99.90
22968;DHT22;11650;48.106;-1.696;2023-08-20T04:11:20;16.00;99.90
22968;DHT22;11650;48.106;-1.696;2023-08-20T04:13:46;15.90;99.90
22968;DHT22;11650;48.106;-1.696;2023-08-20T04:16:12;16.00;99.90
22968;DHT22;11650;48.106;-1.696;2023-08-20T04:18:39;16.00;99.90
22968;DHT22;11650;48.106;-1.696;2023-08-20T04:21:05;15.90;99.90
22968;DHT22;11650;48.106;-1.696;2023-08-20T04:23:30;15.90;99.90
22968;DHT22;11650;48.106;-1.696;2023-08-20T04:25:56;15.90;99.90
22968;DHT22;11650;48.106;-1.696;2023-08-20T04:28:22;15.90;99.90
22968;DHT22;11650;48.106;-1.696;2023-08-20T04:30:48;15.80;99.90
22968;DHT22;11650;48.106;-1.696;2023-08-20T04:33:14;15.80;99.90
22968;DHT22;11650;48.106;-1.696;2023-08-20T04:35:40;15.70;99.90
22968;DHT22;11650;48.106;-1.696;2023-08-20T04:38:06;15.70;99.90
22968;DHT22;11650;48.106;-1.696;2023-08-20T04:40:33;15.70;99.90
22968;DHT22;11650;48.106;-1.696;2023-08-20T04:42:58;15.70;99.90
22968;DHT22;11650;48.106;-1.696;2023-08-20T04:45:24;15.70;99.90
22968;DHT22;11650;48.106;-1.696;2023-08-20T04:47:50;15.70;99.90
22968;DHT22;11650;48.106;-1.696;2023-08-20T04:50:15;15.70;99.90
22968;DHT22;11650;48.106;-1.696;2023-08-20T04:52:41;15.70;99.90
22968;DHT22;11650;48.106;-1.696;2023-08-20T04:55:07;15.70;99.90
22968;DHT22;11650;48.106;-1.696;2023-08-20T04:57:33;15.70;99.90
22968;DHT22;11650;48.106;-1.696;2023-08-20T04:59:59;15.60;99.90
22968;DHT22;11650;48.106;-1.696;2023-08-20T05:02:24;15.70;99.90
22968;DHT22;11650;48.106;-1.696;2023-08-20T05:04:50;15.70;99.90
22968;DHT22;11650;48.106;-1.696;2023-08-20T05:07:16;15.70;99.90
22968;DHT22;11650;48.106;-1.696;2023-08-20T05:09:42;15.60;99.90
22968;DHT22;11650;48.106;-1.696;2023-08-20T05:12:07;15.50;99.90
22968;DHT22;11650;48.106;-1.696;2023-08-20T05:14:33;15.50;99.90
22968;DHT22;11650;48.106;-1.696;2023-08-20T05:16:59;15.50;99.90
22968;DHT22;11650;48.106;-1.696;2023-08-20T05:19:24;15.50;99.90
22968;DHT22;11650;48.106;-1.696;2023-08-20T05:21:50;15.40;99.90
22968;DHT22;11650;48.106;-1.696;2023-08-20T05:24:17;15.40;99.90
22968;DHT22;11650;48.106;-1.696;2023-08-20T05:26:42;15.30;99.90
22968;DHT22;11650;48.106;-1.696;2023-08-20T05:29:08;15.20;99.90
22968;DHT22;11650;48.106;-1.696;2023-08-20T05:31:34;15.10;99.90
22968;DHT22;11650;48.106;-1.696;2023-08-20T05:33:59;15.10;99.90
22968;DHT22;11650;48.106;-1.696;2023-08-20T05:36:25;15.10;99.90
22968;DHT22;11650;48.106;-1.696;2023-08-20T05:38:50;15.00;99.90
22968;DHT22;11650;48.106;-1.696;2023-08-20T05:41:16;14.90;99.90
22968;DHT22;11650;48.106;-1.696;2023-08-20T05:43:42;14.90;99.90
22968;DHT22;11650;48.106;-1.696;2023-08-20T05:46:07;14.80;99.90
22968;DHT22;11650;48.106;-1.696;2023-08-20T05:48:33;14.80;99.90
22968;DHT22;11650;48.106;-1.696;2023-08-20T05:50:58;14.90;99.90
22968;DHT22;11650;48.106;-1.696;2023-08-20T05:53:24;14.90;99.90
22968;DHT22;11650;48.106;-1.696;2023-08-20T05:55:50;14.90;99.90
22968;DHT22;11650;48.106;-1.696;2023-08-20T05:58:15;14.90;99.90
22968;DHT22;11650;48.106;-1.696;2023-08-20T06:00:41;15.00;99.90
22968;DHT22;11650;48.106;-1.696;2023-08-20T06:03:07;15.00;99.90
22968;DHT22;11650;48.106;-1.696;2023-08-20T06:05:33;15.10;99.90
22968;DHT22;11650;48.106;-1.696;2023-08-20T06:07:59;15.10;99.90
22968;DHT22;11650;48.106;-1.696;2023-08-20T06:10:25;15.10;99.90
22968;DHT22;11650;48.106;-1.696;2023-08-20T06:12:52;15.20;99.90
22968;DHT22;11650;48.106;-1.696;2023-08-20T06:15:17;15.30;99.90
22968;DHT22;11650;48.106;-1.696;2023-08-20T06:17:43;15.40;99.90
22968;DHT22;11650;48.106;-1.696;2023-08-20T06:20:09;15.40;99.90
22968;DHT22;11650;48.106;-1.696;2023-08-20T06:22:37;15.50;99.90
22968;DHT22;11650;48.106;-1.696;2023-08-20T06:25:03;15.40;99.90
22968;DHT22;11650;48.106;-1.696;2023-08-20T06:27:29;15.60;99.90
22968;DHT22;11650;48.106;-1.696;2023-08-20T06:29:55;15.80;99.90
22968;DHT22;11650;48.106;-1.696;2023-08-20T06:32:21;15.80;99.90
22968;DHT22;11650;48.106;-1.696;2023-08-20T06:34:46;15.90;99.90
22968;DHT22;11650;48.106;-1.696;2023-08-20T06:37:12;16.00;99.90
22968;DHT22;11650;48.106;-1.696;2023-08-20T06:39:37;16.10;99.90
22968;DHT22;11650;48.106;-1.696;2023-08-20T06:42:03;16.10;99.90
22968;DHT22;11650;48.106;-1.696;2023-08-20T06:44:29;16.20;99.90
22968;DHT22;11650;48.106;-1.696;2023-08-20T06:46:55;16.40;99.90
22968;DHT22;11650;48.106;-1.696;2023-08-20T06:49:20;16.50;99.90
22968;DHT22;11650;48.106;-1.696;2023-08-20T06:51:46;16.50;99.90
22968;DHT22;11650;48.106;-1.696;2023-08-20T06:54:11;16.40;99.90
22968;DHT22;11650;48.106;-1.696;2023-08-20T06:56:37;16.60;99.90
22968;DHT22;11650;48.106;-1.696;2023-08-20T06:59:03;16.70;99.90
22968;DHT22;11650;48.106;-1.696;2023-08-20T07:01:29;16.80;99.90
22968;DHT22;11650;48.106;-1.696;2023-08-20T07:03:54;16.90;99.90
22968;DHT22;11650;48.106;-1.696;2023-08-20T07:06:20;16.90;99.90
22968;DHT22;11650;48.106;-1.696;2023-08-20T07:08:46;16.80;99.90
22968;DHT22;11650;48.106;-1.696;2023-08-20T07:11:12;16.90;99.90
22968;DHT22;11650;48.106;-1.696;2023-08-20T07:13:37;17.00;99.90
22968;DHT22;11650;48.106;-1.696;2023-08-20T07:16:03;17.10;99.90
22968;DHT22;11650;48.106;-1.696;2023-08-20T07:18:29;17.30;99.90
22968;DHT22;11650;48.106;-1.696;2023-08-20T07:20:55;17.30;99.90
22968;DHT22;11650;48.106;-1.696;2023-08-20T07:23:21;17.40;99.90
22968;DHT22;11650;48.106;-1.696;2023-08-20T07:25:47;17.30;99.90
22968;DHT22;11650;48.106;-1.696;2023-08-20T07:28:14;17.50;99.90
22968;DHT22;11650;48.106;-1.696;2023-08-20T07:30:39;17.70;99.90
22968;DHT22;11650;48.106;-1.696;2023-08-20T07:33:06;17.60;99.90
22968;DHT22;11650;48.106;-1.696;2023-08-20T07:35:33;17.80;99.90
22968;DHT22;11650;48.106;-1.696;2023-08-20T07:37:59;18.00;99.90
22968;DHT22;11650;48.106;-1.696;2023-08-20T07:40:24;18.10;99.90
22968;DHT22;11650;48.106;-1.696;2023-08-20T07:42:50;18.30;99.90
22968;DHT22;11650;48.106;-1.696;2023-08-20T07:45:16;18.30;99.90
22968;DHT22;11650;48.106;-1.696;2023-08-20T07:47:42;18.50;99.90
22968;DHT22;11650;48.106;-1.696;2023-08-20T07:50:08;18.60;99.90
22968;DHT22;11650;48.106;-1.696;2023-08-20T07:52:34;18.60;99.90
22968;DHT22;11650;48.106;-1.696;2023-08-20T07:55:00;18.70;99.90
22968;DHT22;11650;48.106;-1.696;2023-08-20T07:57:25;18.80;99.90
22968;DHT22;11650;48.106;-1.696;2023-08-20T07:59:51;19.00;99.90
22968;DHT22;11650;48.106;-1.696;2023-08-20T08:02:17;19.10;99.90
22968;DHT22;11650;48.106;-1.696;2023-08-20T08:04:43;19.20;99.90
22968;DHT22;11650;48.106;-1.696;2023-08-20T08:07:10;19.30;99.90
22968;DHT22;11650;48.106;-1.696;2023-08-20T08:09:35;19.40;99.90
22968;DHT22;11650;48.106;-1.696;2023-08-20T08:12:01;19.40;99.90
22968;DHT22;11650;48.106;-1.696;2023-08-20T08:14:27;19.60;99.90
22968;DHT22;11650;48.106;-1.696;2023-08-20T08:16:53;19.80;99.90
22968;DHT22;11650;48.106;-1.696;2023-08-20T08:19:19;19.90;99.90
22968;DHT22;11650;48.106;-1.696;2023-08-20T08:21:46;19.90;99.90
22968;DHT22;11650;48.106;-1.696;2023-08-20T08:24:12;19.80;99.90
22968;DHT22;11650;48.106;-1.696;2023-08-20T08:26:39;20.00;99.90
22968;DHT22;11650;48.106;-1.696;2023-08-20T08:29:05;20.20;99.90
22968;DHT22;11650;48.106;-1.696;2023-08-20T08:31:31;20.20;99.90
22968;DHT22;11650;48.106;-1.696;2023-08-20T08:33:57;20.40;99.90
22968;DHT22;11650;48.106;-1.696;2023-08-20T08:36:22;20.50;99.90
22968;DHT22;11650;48.106;-1.696;2023-08-20T08:38:50;20.70;99.90
22968;DHT22;11650;48.106;-1.696;2023-08-20T08:41:17;20.80;99.90
22968;DHT22;11650;48.106;-1.696;2023-08-20T08:43:42;20.80;99.90
22968;DHT22;11650;48.106;-1.696;2023-08-20T08:46:13;20.90;99.90
22968;DHT22;11650;48.106;-1.696;2023-08-20T08:48:45;20.70;99.90
22968;DHT22;11650;48.106;-1.696;2023-08-20T08:51:13;20.90;99.90
22968;DHT22;11650;48.106;-1.696;2023-08-20T08:53:39;20.90;99.90
22968;DHT22;11650;48.106;-1.696;2023-08-20T08:56:05;21.00;99.90
22968;DHT22;11650;48.106;-1.696;2023-08-20T08:58:32;21.10;99.90
22968;DHT22;11650;48.106;-1.696;2023-08-20T09:00:58;21.20;99.90
22968;DHT22;11650;48.106;-1.696;2023-08-20T09:03:24;21.00;99.90
22968;DHT22;11650;48.106;-1.696;2023-08-20T09:05:55;21.20;99.90
22968;DHT22;11650;48.106;-1.696;2023-08-20T09:08:28;21.20;99.90
22968;DHT22;11650;48.106;-1.696;2023-08-20T09:10:55;21.30;99.90
22968;DHT22;11650;48.106;-1.696;2023-08-20T09:13:35;21.40;99.90
22968;DHT22;11650;48.106;-1.696;2023-08-20T09:16:06;21.60;99.90
22968;DHT22;11650;48.106;-1.696;2023-08-20T09:18:37;21.70;99.90
22968;DHT22;11650;48.106;-1.696;2023-08-20T09:21:07;21.80;99.90
22968;DHT22;11650;48.106;-1.696;2023-08-20T09:23:34;21.90;99.90
22968;DHT22;11650;48.106;-1.696;2023-08-20T09:26:02;21.80;99.90
22968;DHT22;11650;48.106;-1.696;2023-08-20T09:28:28;21.60;99.90
22968;DHT22;11650;48.106;-1.696;2023-08-20T09:30:58;21.70;99.90
22968;DHT22;11650;48.106;-1.696;2023-08-20T09:33:24;21.80;99.90
22968;DHT22;11650;48.106;-1.696;2023-08-20T09:35:51;21.80;99.90
22968;DHT22;11650;48.106;-1.696;2023-08-20T09:38:20;21.90;99.90
22968;DHT22;11650;48.106;-1.696;2023-08-20T09:40:49;22.20;99.90
22968;DHT22;11650;48.106;-1.696;2023-08-20T09:43:16;22.30;99.90
22968;DHT22;11650;48.106;-1.696;2023-08-20T09:45:43;22.10;99.90
22968;DHT22;11650;48.106;-1.696;2023-08-20T09:48:10;22.30;99.90
22968;DHT22;11650;48.106;-1.696;2023-08-20T09:50:36;22.30;99.90
22968;DHT22;11650;48.106;-1.696;2023-08-20T09:53:27;22.60;99.90
22968;DHT22;11650;48.106;-1.696;2023-08-20T09:55:52;22.40;99.90
22968;DHT22;11650;48.106;-1.696;2023-08-20T09:58:21;22.50;99.90
22968;DHT22;11650;48.106;-1.696;2023-08-20T10:00:51;22.40;99.90
22968;DHT22;11650;48.106;-1.696;2023-08-20T10:03:18;22.50;99.90
22968;DHT22;11650;48.106;-1.696;2023-08-20T10:05:47;22.70;99.90
22968;DHT22;11650;48.106;-1.696;2023-08-20T10:08:14;22.80;99.90
22968;DHT22;11650;48.106;-1.696;2023-08-20T10:10:40;22.90;99.90
22968;DHT22;11650;48.106;-1.696;2023-08-20T10:13:06;23.00;99.90
22968;DHT22;11650;48.106;-1.696;2023-08-20T10:15:32;23.20;99.90
22968;DHT22;11650;48.106;-1.696;2023-08-20T10:18:01;23.20;99.90
22968;DHT22;11650;48.106;-1.696;2023-08-20T10:20:29;23.30;99.90
22968;DHT22;11650;48.106;-1.696;2023-08-20T10:23:01;23.30;99.90
22968;DHT22;11650;48.106;-1.696;2023-08-20T10:25:29;23.40;99.90
22968;DHT22;11650;48.106;-1.696;2023-08-20T10:28:14;23.40;99.90
22968;DHT22;11650;48.106;-1.696;2023-08-20T10:33:28;23.30;99.90
22968;DHT22;11650;48.106;-1.696;2023-08-20T10:35:54;23.30;99.90
22968;DHT22;11650;48.106;-1.696;2023-08-20T10:38:19;23.40;99.90
22968;DHT22;11650;48.106;-1.696;2023-08-20T10:43:39;23.40;99.90
22968;DHT22;11650;48.106;-1.696;2023-08-20T10:46:17;23.40;99.90
22968;DHT22;11650;48.106;-1.696;2023-08-20T10:48:59;23.60;99.90
22968;DHT22;11650;48.106;-1.696;2023-08-20T10:51:35;23.60;99.90
22968;DHT22;11650;48.106;-1.696;2023-08-20T10:59:29;23.90;99.90
22968;DHT22;11650;48.106;-1.696;2023-08-20T11:01:59;23.70;99.90
22968;DHT22;11650;48.106;-1.696;2023-08-20T11:04:28;23.90;99.90
22968;DHT22;11650;48.106;-1.696;2023-08-20T11:06:56;24.10;99.90
22968;DHT22;11650;48.106;-1.696;2023-08-20T11:09:23;24.10;99.90
22968;DHT22;11650;48.106;-1.696;2023-08-20T11:11:50;24.10;99.90
22968;DHT22;11650;48.106;-1.696;2023-08-20T11:14:18;24.20;99.90
22968;DHT22;11650;48.106;-1.696;2023-08-20T11:16:45;24.20;99.90
22968;DHT22;11650;48.106;-1.696;2023-08-20T11:19:11;24.50;99.90
22968;DHT22;11650;48.106;-1.696;2023-08-20T11:21:41;24.70;99.90
22968;DHT22;11650;48.106;-1.696;2023-08-20T11:24:07;24.50;99.90
22968;DHT22;11650;48.106;-1.696;2023-08-20T11:26:34;24.50;99.90
22968;DHT22;11650;48.106;-1.696;2023-08-20T11:29:01;24.50;99.90
22968;DHT22;11650;48.106;-1.696;2023-08-20T11:31:26;24.50;99.90
22968;DHT22;11650;48.106;-1.696;2023-08-20T11:33:52;24.60;99.90
22968;DHT22;11650;48.106;-1.696;2023-08-20T11:36:20;25.10;99.90
22968;DHT22;11650;48.106;-1.696;2023-08-20T11:38:52;25.30;99.90
22968;DHT22;11650;48.106;-1.696;2023-08-20T11:41:23;25.50;99.90
22968;DHT22;11650;48.106;-1.696;2023-08-20T11:43:49;25.60;99.90
22968;DHT22;11650;48.106;-1.696;2023-08-20T11:46:17;25.40;99.90
22968;DHT22;11650;48.106;-1.696;2023-08-20T11:49:02;25.00;99.90
22968;DHT22;11650;48.106;-1.696;2023-08-20T11:51:29;25.00;99.90
22968;DHT22;11650;48.106;-1.696;2023-08-20T11:53:55;25.40;99.90
22968;DHT22;11650;48.106;-1.696;2023-08-20T11:56:21;25.20;99.90
22968;DHT22;11650;48.106;-1.696;2023-08-20T11:59:00;25.50;99.90
22968;DHT22;11650;48.106;-1.696;2023-08-20T12:01:30;25.80;99.90
22968;DHT22;11650;48.106;-1.696;2023-08-20T12:04:06;25.60;99.90
22968;DHT22;11650;48.106;-1.696;2023-08-20T12:06:34;25.70;99.90
22968;DHT22;11650;48.106;-1.696;2023-08-20T12:09:00;25.80;99.90
22968;DHT22;11650;48.106;-1.696;2023-08-20T12:11:30;25.80;99.90
22968;DHT22;11650;48.106;-1.696;2023-08-20T12:13:56;25.80;99.90
22968;DHT22;11650;48.106;-1.696;2023-08-20T12:16:23;25.80;99.90
22968;DHT22;11650;48.106;-1.696;2023-08-20T12:18:49;25.90;99.90
22968;DHT22;11650;48.106;-1.696;2023-08-20T12:21:15;26.10;99.90
22968;DHT22;11650;48.106;-1.696;2023-08-20T12:23:41;26.60;99.90
22968;DHT22;11650;48.106;-1.696;2023-08-20T12:26:07;26.50;99.90
22968;DHT22;11650;48.106;-1.696;2023-08-20T12:28:33;26.50;99.90
22968;DHT22;11650;48.106;-1.696;2023-08-20T12:30:59;26.60;99.90
22968;DHT22;11650;48.106;-1.696;2023-08-20T12:33:25;26.40;99.90
22968;DHT22;11650;48.106;-1.696;2023-08-20T12:35:54;27.00;99.90
22968;DHT22;11650;48.106;-1.696;2023-08-20T12:38:20;26.90;99.90
22968;DHT22;11650;48.106;-1.696;2023-08-20T12:40:46;27.30;99.90
22968;DHT22;11650;48.106;-1.696;2023-08-20T12:43:12;27.20;99.90
22968;DHT22;11650;48.106;-1.696;2023-08-20T12:45:37;27.00;99.90
22968;DHT22;11650;48.106;-1.696;2023-08-20T12:48:04;26.80;99.90
22968;DHT22;11650;48.106;-1.696;2023-08-20T12:50:30;26.80;99.90
22968;DHT22;11650;48.106;-1.696;2023-08-20T12:52:56;27.20;99.90
22968;DHT22;11650;48.106;-1.696;2023-08-20T12:55:22;27.30;99.90
22968;DHT22;11650;48.106;-1.696;2023-08-20T12:57:57;27.30;99.90
22968;DHT22;11650;48.106;-1.696;2023-08-20T13:00:24;27.20;99.90
22968;DHT22;11650;48.106;-1.696;2023-08-20T13:02:54;27.20;99.90
22968;DHT22;11650;48.106;-1.696;2023-08-20T13:05:23;27.10;99.90
22968;DHT22;11650;48.106;-1.696;2023-08-20T13:07:50;27.10;99.90
22968;DHT22;11650;48.106;-1.696;2023-08-20T13:10:16;27.20;99.90
22968;DHT22;11650;48.106;-1.696;2023-08-20T13:12:44;28.10;99.90
22968;DHT22;11650;48.106;-1.696;2023-08-20T13:15:17;28.80;99.90
22968;DHT22;11650;48.106;-1.696;2023-08-20T13:17:45;29.50;99.90
22968;DHT22;11650;48.106;-1.696;2023-08-20T13:20:12;29.70;99.90
22968;DHT22;11650;48.106;-1.696;2023-08-20T13:22:37;29.40;99.90
22968;DHT22;11650;48.106;-1.696;2023-08-20T13:25:03;29.60;99.90
22968;DHT22;11650;48.106;-1.696;2023-08-20T13:27:30;30.40;99.90
22968;DHT22;11650;48.106;-1.696;2023-08-20T13:29:56;30.60;99.90
22968;DHT22;11650;48.106;-1.696;2023-08-20T13:32:22;30.80;99.90
22968;DHT22;11650;48.106;-1.696;2023-08-20T13:34:49;30.50;99.90
22968;DHT22;11650;48.106;-1.696;2023-08-20T13:37:15;30.40;99.90
22968;DHT22;11650;48.106;-1.696;2023-08-20T13:39:40;30.50;99.90
22968;DHT22;11650;48.106;-1.696;2023-08-20T13:42:06;31.10;99.90
22968;DHT22;11650;48.106;-1.696;2023-08-20T13:44:32;32.00;99.90
22968;DHT22;11650;48.106;-1.696;2023-08-20T13:46:58;32.70;99.90
22968;DHT22;11650;48.106;-1.696;2023-08-20T13:49:24;32.30;99.90
22968;DHT22;11650;48.106;-1.696;2023-08-20T13:51:49;32.50;99.90
22968;DHT22;11650;48.106;-1.696;2023-08-20T13:54:15;32.80;99.90
22968;DHT22;11650;48.106;-1.696;2023-08-20T13:56:41;32.70;99.90
22968;DHT22;11650;48.106;-1.696;2023-08-20T13:59:09;32.40;99.90
22968;DHT22;11650;48.106;-1.696;2023-08-20T14:01:35;32.10;99.90
22968;DHT22;11650;48.106;-1.696;2023-08-20T14:04:01;32.20;99.90
22968;DHT22;11650;48.106;-1.696;2023-08-20T14:06:27;32.40;99.90
22968;DHT22;11650;48.106;-1.696;2023-08-20T14:08:53;32.00;99.90
22968;DHT22;11650;48.106;-1.696;2023-08-20T14:11:19;32.30;99.90
22968;DHT22;11650;48.106;-1.696;2023-08-20T14:13:44;32.40;99.90
22968;DHT22;11650;48.106;-1.696;2023-08-20T14:16:10;32.90;99.90
22968;DHT22;11650;48.106;-1.696;2023-08-20T14:18:36;32.80;99.90
22968;DHT22;11650;48.106;-1.696;2023-08-20T14:21:01;32.40;99.90
22968;DHT22;11650;48.106;-1.696;2023-08-20T14:23:28;32.70;99.90
22968;DHT22;11650;48.106;-1.696;2023-08-20T14:25:55;32.90;99.90
22968;DHT22;11650;48.106;-1.696;2023-08-20T14:28:21;32.90;99.90
22968;DHT22;11650;48.106;-1.696;2023-08-20T14:30:46;33.60;99.90
22968;DHT22;11650;48.106;-1.696;2023-08-20T14:33:12;33.70;99.90
22968;DHT22;11650;48.106;-1.696;2023-08-20T14:35:38;34.90;99.90
22968;DHT22;11650;48.106;-1.696;2023-08-20T14:38:03;32.20;99.90
22968;DHT22;11650;48.106;-1.696;2023-08-20T14:40:30;31.50;99.90
22968;DHT22;11650;48.106;-1.696;2023-08-20T14:42:56;31.00;99.90
22968;DHT22;11650;48.106;-1.696;2023-08-20T14:45:21;32.20;99.90
22968;DHT22;11650;48.106;-1.696;2023-08-20T14:47:47;33.10;99.90
22968;DHT22;11650;48.106;-1.696;2023-08-20T14:50:13;33.50;99.90
22968;DHT22;11650;48.106;-1.696;2023-08-20T14:52:38;33.60;99.90
22968;DHT22;11650;48.106;-1.696;2023-08-20T14:55:04;33.60;99.90
22968;DHT22;11650;48.106;-1.696;2023-08-20T14:57:33;34.30;99.90
22968;DHT22;11650;48.106;-1.696;2023-08-20T14:59:59;36.10;99.90
22968;DHT22;11650;48.106;-1.696;2023-08-20T15:02:24;36.10;99.90
22968;DHT22;11650;48.106;-1.696;2023-08-20T15:04:50;35.20;99.90
22968;DHT22;11650;48.106;-1.696;2023-08-20T15:07:15;35.20;99.90
22968;DHT22;11650;48.106;-1.696;2023-08-20T15:09:41;34.90;99.90
22968;DHT22;11650;48.106;-1.696;2023-08-20T15:12:07;35.10;99.90
22968;DHT22;11650;48.106;-1.696;2023-08-20T15:14:33;34.90;99.90
22968;DHT22;11650;48.106;-1.696;2023-08-20T15:16:58;36.30;99.90
22968;DHT22;11650;48.106;-1.696;2023-08-20T15:19:24;36.40;99.90
22968;DHT22;11650;48.106;-1.696;2023-08-20T15:21:50;36.60;99.90
22968;DHT22;11650;48.106;-1.696;2023-08-20T15:24:15;36.70;99.90
22968;DHT22;11650;48.106;-1.696;2023-08-20T15:26:41;37.20;99.90
22968;DHT22;11650;48.106;-1.696;2023-08-20T15:29:06;36.60;99.90
22968;DHT22;11650;48.106;-1.696;2023-08-20T15:31:33;36.70;99.90
22968;DHT22;11650;48.106;-1.696;2023-08-20T15:33:59;36.00;99.90